Annamoriah, WV

10:29 AM EDT on September 19, 2014 (GMT -0400)
Reedy, WV | Change Station
CLOSE
Current Station
Personal Weather Station
Location: Reedy, WV
Elevation: 750 ft
Nearby Weather Stations

Elev 750 ft 38.89 °N, 81.40 °W | Updated 4 minutes ago

Clear
Clear
57.1 °F
Feels Like 57.1 °F
N
0.0
Wind Variable Wind from SSE
Gusts 0.0 mph

Today
High -- | Low -- °F
--% Chance of Precip.
Yesterday
High -- | Low -- °F
Precip. -- in
7:10 AM 7:26 PM
Waning Crescent, 19% visible
Pressure 30.22 in
Visibility 10.0 miles
Clouds Clear
Dew Point 56 °F
Humidity 95%
Rainfall 0.00 in
Snow Depth Not available.
UV 3 out of 12
Pollen 4.00 out of 12
Air Quality Not available.
Flu Activity Not available.
METAR KPKB 191353Z 08004KT 10SM CLR 14/11 A3022 RMK AO2 SLP233 T01440106

More Conditions Fewer Conditions

Pressure 30.22 in
Visibility 10.0 miles
Clouds Clear
Dew Point 56 °F
Humidity 95%
Rainfall 0.00 in
Snow Depth Not available.
UV 3 out of 12
Pollen 4.00 out of 12
Air Quality Not available.
Flu Activity Not available.
METAR KPKB 191353Z 08004KT 10SM CLR 14/11 A3022 RMK AO2 SLP233 T01440106

More Conditions Fewer Conditions

10-Day Weather Forecast

Almanac

Astronomy

Sep. 19, 2014 Rise Set
Actual Time 7:10 AM EDT 7:26 PM EDT
Civil Twilight 6:43 AM EDT 7:53 PM EDT
Nautical Twilight 6:12 AM EDT 8:24 PM EDT
Astronomical Twilight 5:40 AM EDT 8:56 PM EDT
Moon 2:55 AM EDT 4:53 PM EDT
Length of Visible Light 13h 10m
Length of Day
12h 16m
Tomorrow will be 2m 32s shorter.
Waning Crescent, 19% of the Moon is Illuminated
Today
Waning Crescent
Sep 24
New
Oct 1
First Quarter
Oct 8
Full
Oct 15
Last Quarter

Today's Extremes

State Highs State Lows

Community

WunderPhotos

Upload Photos

1,754,624 photos uploaded!

WunderBlogs® & News

Nearby

Snow Depth

Station Depth Elevation
No new snow has been reported.

Earthquake Activity

City Distance Mag. Time & Date
No recent earthquake activity has been reported nearby.
Minimum magnitude displayed is 2.5.

Coastal Water Temperatures

Place Temperature
No Stations Reporting

Nearby Weather Stations